createdAt,value
2023-01-31T00:01:41.946Z,4.76
2023-01-31T00:04:11.688Z,4.77
2023-01-31T00:06:41.676Z,4.74
2023-01-31T00:09:12.031Z,4.31
2023-01-31T00:11:39.756Z,4.54
2023-01-31T00:14:09.018Z,4.47
2023-01-31T00:16:37.239Z,4.87
2023-01-31T00:19:06.497Z,4.31
2023-01-31T00:21:34.927Z,4.45
2023-01-31T00:24:02.728Z,4.73
2023-01-31T00:26:33.888Z,4.55
2023-01-31T00:29:04.511Z,4.40
2023-01-31T00:31:35.101Z,4.51
2023-01-31T00:34:03.259Z,4.71
2023-01-31T00:36:35.697Z,4.51
2023-01-31T00:39:06.252Z,4.57
2023-01-31T00:41:36.528Z,4.60
2023-01-31T00:44:05.775Z,4.64
2023-01-31T00:46:34.554Z,4.26
2023-01-31T00:49:03.619Z,4.41
2023-01-31T00:51:33.123Z,4.31
2023-01-31T00:54:00.769Z,4.40
2023-01-31T00:56:29.441Z,4.35
2023-01-31T00:58:57.431Z,4.55
2023-01-31T01:01:27.320Z,4.62
2023-01-31T01:03:56.786Z,4.51
2023-01-31T01:06:24.704Z,4.67
2023-01-31T01:08:56.180Z,4.69
2023-01-31T01:11:28.751Z,4.69
2023-01-31T01:13:57.611Z,4.65
2023-01-31T01:16:28.048Z,4.59
2023-01-31T01:18:55.941Z,4.59
2023-01-31T01:21:28.447Z,4.39
2023-01-31T01:24:01.294Z,4.20
2023-01-31T01:26:32.944Z,4.28
2023-01-31T01:29:02.308Z,4.44
2023-01-31T01:31:32.825Z,4.48
2023-01-31T01:34:02.449Z,4.34
2023-01-31T01:36:34.537Z,4.39
2023-01-31T01:39:06.462Z,4.31
2023-01-31T01:41:37.258Z,4.40
2023-01-31T01:44:43.530Z,4.54
2023-01-31T01:47:21.382Z,4.53
2023-01-31T01:49:54.949Z,4.44
2023-01-31T01:52:26.940Z,4.24
2023-01-31T01:55:07.083Z,4.13
2023-01-31T01:57:41.317Z,3.98
2023-01-31T02:00:17.229Z,3.68
2023-01-31T02:02:47.656Z,3.81
2023-01-31T02:05:21.245Z,3.59
2023-01-31T02:07:51.273Z,3.67
2023-01-31T02:10:25.176Z,3.81
2023-01-31T02:12:53.586Z,3.88
2023-01-31T02:15:22.721Z,3.79
2023-01-31T02:17:50.916Z,3.85
2023-01-31T02:20:42.281Z,3.77
2023-01-31T02:23:38.820Z,4.01
2023-01-31T02:26:38.427Z,4.02
2023-01-31T02:29:39.796Z,3.78
2023-01-31T02:32:48.719Z,3.92
2023-01-31T02:35:40.349Z,3.51
2023-01-31T02:38:33.859Z,3.88
2023-01-31T02:41:18.683Z,4.08
2023-01-31T02:43:54.040Z,3.87
2023-01-31T02:46:29.287Z,4.01
2023-01-31T02:49:07.391Z,4.20
2023-01-31T02:51:42.321Z,4.22
2023-01-31T02:54:17.844Z,4.28
2023-01-31T02:56:49.411Z,4.36
2023-01-31T02:59:21.889Z,4.55
2023-01-31T03:01:58.717Z,4.51
2023-01-31T03:04:31.668Z,4.52
2023-01-31T03:07:06.869Z,4.43
2023-01-31T03:09:39.942Z,4.66
2023-01-31T03:12:32.918Z,4.75
2023-01-31T03:15:21.798Z,4.63
2023-01-31T03:18:00.461Z,4.71
2023-01-31T03:20:38.050Z,4.69
2023-01-31T03:23:12.115Z,4.82
2023-01-31T03:25:40.955Z,4.71
2023-01-31T03:28:13.788Z,4.68
2023-01-31T03:30:48.339Z,4.71
2023-01-31T03:33:21.759Z,4.59
2023-01-31T03:36:03.081Z,4.58
2023-01-31T03:38:37.438Z,4.47
2023-01-31T03:41:14.974Z,4.63
2023-01-31T03:43:52.916Z,4.65
2023-01-31T03:46:28.617Z,4.63
2023-01-31T03:49:02.197Z,4.55
2023-01-31T03:51:37.208Z,4.42
2023-01-31T03:54:10.086Z,4.50
2023-01-31T03:56:45.554Z,4.55
2023-01-31T03:59:18.632Z,4.59
2023-01-31T04:01:52.008Z,4.34
2023-01-31T04:04:25.932Z,4.41
2023-01-31T04:06:56.163Z,4.55
2023-01-31T04:09:23.868Z,4.44
2023-01-31T04:11:53.143Z,4.51
2023-01-31T04:14:21.226Z,4.57
2023-01-31T04:16:48.903Z,4.51
2023-01-31T04:19:16.641Z,4.58
2023-01-31T04:21:45.833Z,4.50
2023-01-31T04:24:14.748Z,4.48
2023-01-31T04:26:42.301Z,4.45
2023-01-31T04:29:10.003Z,4.51
2023-01-31T04:31:37.923Z,4.42
2023-01-31T04:34:07.823Z,4.55
2023-01-31T04:36:36.351Z,4.27
2023-01-31T04:39:04.518Z,4.50
2023-01-31T04:41:33.762Z,4.51
2023-01-31T04:44:01.530Z,4.30
2023-01-31T04:46:29.289Z,4.43
2023-01-31T04:48:57.082Z,4.29
2023-01-31T04:51:25.021Z,4.22
2023-01-31T04:53:52.600Z,4.29
2023-01-31T04:56:20.216Z,4.34
2023-01-31T04:58:49.494Z,4.34
2023-01-31T05:01:17.220Z,4.33
2023-01-31T05:03:44.801Z,4.30
2023-01-31T05:06:12.525Z,4.17
2023-01-31T05:08:40.438Z,4.13
2023-01-31T05:11:08.873Z,4.33
2023-01-31T05:13:37.159Z,4.03
2023-01-31T05:16:09.570Z,3.84
2023-01-31T05:18:38.167Z,3.70
2023-01-31T05:21:07.659Z,3.91
2023-01-31T05:23:36.736Z,3.91
2023-01-31T05:26:05.133Z,3.99
2023-01-31T05:28:32.852Z,4.03
2023-01-31T05:31:06.722Z,4.00
2023-01-31T05:33:36.227Z,4.22
2023-01-31T05:36:04.762Z,3.95
2023-01-31T05:38:32.350Z,4.17
2023-01-31T05:41:00.112Z,4.17
2023-01-31T05:43:28.024Z,4.24
2023-01-31T05:45:55.718Z,4.46
2023-01-31T05:48:23.389Z,4.44
2023-01-31T05:50:52.306Z,4.29
2023-01-31T05:53:19.874Z,4.20
2023-01-31T05:55:47.555Z,3.87
2023-01-31T05:58:17.471Z,4.20
2023-01-31T06:00:45.104Z,4.17
2023-01-31T06:03:15.032Z,3.94
2023-01-31T06:05:42.636Z,4.05
2023-01-31T06:08:11.555Z,3.70
2023-01-31T06:10:39.285Z,3.72
2023-01-31T06:13:06.844Z,3.86
2023-01-31T06:15:34.456Z,3.83
2023-01-31T06:18:02.273Z,3.73
2023-01-31T06:20:30.714Z,3.69
2023-01-31T06:22:58.622Z,3.61
2023-01-31T06:25:27.922Z,3.65
2023-01-31T06:27:55.917Z,3.98
2023-01-31T06:30:23.799Z,4.05
2023-01-31T06:32:51.618Z,3.94
2023-01-31T06:35:19.838Z,3.77
2023-01-31T06:37:47.581Z,3.98
2023-01-31T06:40:16.637Z,3.74
2023-01-31T06:42:45.986Z,3.80
2023-01-31T06:45:13.844Z,3.94
2023-01-31T06:47:41.783Z,3.91
2023-01-31T06:50:11.145Z,3.96
2023-01-31T06:52:39.421Z,3.89
2023-01-31T06:55:08.442Z,3.76
2023-01-31T06:57:36.191Z,3.81
2023-01-31T07:00:06.961Z,3.72
2023-01-31T07:02:34.578Z,3.92
2023-01-31T07:05:02.266Z,3.96
2023-01-31T07:07:30.314Z,3.66
2023-01-31T07:09:57.927Z,3.81
2023-01-31T07:12:26.414Z,3.84
2023-01-31T07:14:54.061Z,3.64
2023-01-31T07:17:23.219Z,3.66
2023-01-31T07:19:51.508Z,3.69
2023-01-31T07:22:19.277Z,3.58
2023-01-31T07:24:46.925Z,3.84
2023-01-31T07:27:15.086Z,3.97
2023-01-31T07:29:43.058Z,4.00
2023-01-31T07:32:11.663Z,4.03
2023-01-31T07:34:40.934Z,3.96
2023-01-31T07:37:08.623Z,3.82
2023-01-31T07:39:36.427Z,3.58
2023-01-31T07:42:04.472Z,3.66
2023-01-31T07:44:32.181Z,3.48
2023-01-31T07:47:00.190Z,3.57
2023-01-31T07:49:27.895Z,3.75
2023-01-31T07:51:56.932Z,3.72
2023-01-31T07:54:24.732Z,3.94
2023-01-31T07:56:52.493Z,4.17
2023-01-31T07:59:20.147Z,4.35
2023-01-31T08:01:50.389Z,4.44
2023-01-31T08:04:22.894Z,4.47
2023-01-31T08:06:55.352Z,4.65
2023-01-31T08:09:24.353Z,4.84
2023-01-31T08:11:52.392Z,4.87
2023-01-31T08:14:20.050Z,4.90
2023-01-31T08:16:47.724Z,5.11
2023-01-31T08:19:16.378Z,5.17
2023-01-31T08:21:43.959Z,5.06
2023-01-31T08:24:11.676Z,5.18
2023-01-31T08:26:42.406Z,4.99
2023-01-31T08:29:10.179Z,4.88
2023-01-31T08:31:40.666Z,5.21
2023-01-31T08:34:09.418Z,5.25
2023-01-31T08:36:38.226Z,5.40
2023-01-31T08:39:06.207Z,4.99
2023-01-31T08:41:35.668Z,5.04
2023-01-31T08:44:06.241Z,8.33
2023-01-31T08:46:35.923Z,10.17
2023-01-31T08:49:05.329Z,10.33
2023-01-31T08:51:33.254Z,9.93
2023-01-31T08:54:00.961Z,10.07
2023-01-31T08:56:28.928Z,10.88
2023-01-31T08:58:57.969Z,11.91
2023-01-31T09:01:27.519Z,12.24
2023-01-31T09:03:55.182Z,12.64
2023-01-31T09:06:24.964Z,12.79
2023-01-31T09:08:52.908Z,13.03
2023-01-31T09:11:20.770Z,12.91
2023-01-31T09:13:49.530Z,13.60
2023-01-31T09:16:18.211Z,14.02
2023-01-31T09:18:48.032Z,13.23
2023-01-31T09:21:18.125Z,12.44
2023-01-31T09:23:47.000Z,12.77
2023-01-31T09:26:16.356Z,12.02
2023-01-31T09:28:44.347Z,12.35
2023-01-31T09:31:15.069Z,12.46
2023-01-31T09:33:44.649Z,12.43
2023-01-31T09:36:15.943Z,13.03
2023-01-31T09:38:43.775Z,12.47
2023-01-31T09:41:26.851Z,12.97
2023-01-31T09:44:00.443Z,13.60
2023-01-31T09:46:35.237Z,12.95
2023-01-31T09:49:10.747Z,13.47
2023-01-31T09:51:40.018Z,13.51
2023-01-31T09:54:19.607Z,13.75
2023-01-31T09:56:59.353Z,13.13
2023-01-31T09:59:40.829Z,13.83
2023-01-31T10:02:28.377Z,14.36
2023-01-31T10:05:15.357Z,14.87
2023-01-31T10:07:56.621Z,13.39
2023-01-31T10:10:34.536Z,13.60
2023-01-31T10:13:11.914Z,13.36
2023-01-31T10:15:45.061Z,13.74
2023-01-31T10:18:18.367Z,13.23
2023-01-31T10:20:52.231Z,13.48
2023-01-31T10:23:31.443Z,13.01
2023-01-31T10:26:01.543Z,11.41
2023-01-31T10:28:38.306Z,10.36
2023-01-31T10:31:17.195Z,10.56
2023-01-31T10:33:52.919Z,11.54
2023-01-31T10:36:28.349Z,11.18
2023-01-31T10:39:06.527Z,11.70
2023-01-31T10:41:51.732Z,12.65
2023-01-31T10:44:27.744Z,12.30
2023-01-31T10:46:58.458Z,11.81
2023-01-31T10:49:29.053Z,12.55
2023-01-31T10:52:12.611Z,12.56
2023-01-31T10:54:58.187Z,12.22
2023-01-31T10:57:26.582Z,12.57
2023-01-31T10:59:54.919Z,10.25
2023-01-31T11:02:26.603Z,10.53
2023-01-31T11:04:57.296Z,10.43
2023-01-31T11:07:30.211Z,9.45
2023-01-31T11:10:21.935Z,9.64
2023-01-31T11:12:54.839Z,10.15
2023-01-31T11:15:27.048Z,11.99
2023-01-31T11:18:02.444Z,13.20
2023-01-31T11:20:33.862Z,14.13
2023-01-31T11:23:05.385Z,13.62
2023-01-31T11:25:35.558Z,14.87
2023-01-31T11:28:19.237Z,15.28
2023-01-31T11:30:50.417Z,15.16
2023-01-31T11:33:40.943Z,15.66
2023-01-31T11:36:11.549Z,15.05
2023-01-31T11:38:39.345Z,14.79
2023-01-31T11:41:31.995Z,14.88
2023-01-31T11:44:09.473Z,14.27
2023-01-31T11:46:46.649Z,14.30
2023-01-31T11:49:22.373Z,15.13
2023-01-31T11:51:50.972Z,14.56
2023-01-31T11:54:25.417Z,13.47
2023-01-31T11:56:55.779Z,14.07
2023-01-31T11:59:28.837Z,14.21
2023-01-31T12:02:00.643Z,13.94
2023-01-31T12:04:34.579Z,12.79
2023-01-31T12:07:06.393Z,13.68
2023-01-31T12:09:44.728Z,13.24
2023-01-31T12:12:29.384Z,13.70
2023-01-31T12:15:01.915Z,14.04
2023-01-31T12:17:46.647Z,14.30
2023-01-31T12:20:38.317Z,14.04
2023-01-31T12:23:20.411Z,13.78
2023-01-31T12:26:03.808Z,13.59
2023-01-31T12:28:50.918Z,13.07
2023-01-31T12:31:49.771Z,13.57
2023-01-31T12:34:40.031Z,13.96
2023-01-31T12:37:29.967Z,14.75
2023-01-31T12:40:24.717Z,14.99
2023-01-31T12:42:59.177Z,15.08
2023-01-31T12:45:44.656Z,15.10
2023-01-31T12:48:42.349Z,14.32
2023-01-31T12:51:28.493Z,14.59
2023-01-31T12:54:10.404Z,14.70
2023-01-31T12:56:54.569Z,14.90
2023-01-31T12:59:39.029Z,13.11
2023-01-31T13:02:30.822Z,12.76
2023-01-31T13:05:08.874Z,13.34
2023-01-31T13:07:45.684Z,14.11
2023-01-31T13:10:28.751Z,14.23
2023-01-31T13:12:59.741Z,13.96
2023-01-31T13:15:39.000Z,13.81
2023-01-31T13:18:14.831Z,13.96
2023-01-31T13:20:48.701Z,13.15
2023-01-31T13:23:23.800Z,13.69
2023-01-31T13:26:00.538Z,14.07
2023-01-31T13:28:32.149Z,12.99
2023-01-31T13:31:06.115Z,12.39
2023-01-31T13:33:44.605Z,12.33
2023-01-31T13:36:24.141Z,11.50
2023-01-31T13:38:52.206Z,11.06
2023-01-31T13:41:27.856Z,10.49
2023-01-31T13:43:58.130Z,10.11
2023-01-31T13:46:34.024Z,9.32
2023-01-31T13:49:09.744Z,9.45
2023-01-31T13:51:44.216Z,8.51
2023-01-31T13:54:19.376Z,9.02
2023-01-31T13:56:55.329Z,8.66
2023-01-31T13:59:27.717Z,8.84
2023-01-31T14:01:59.535Z,8.69
2023-01-31T14:04:34.341Z,9.42
2023-01-31T14:07:23.441Z,9.53
2023-01-31T14:10:30.624Z,9.26
2023-01-31T14:13:37.123Z,8.71
2023-01-31T14:16:40.495Z,8.82
2023-01-31T14:19:51.905Z,8.32
2023-01-31T14:22:22.853Z,8.63
2023-01-31T14:25:00.103Z,8.71
2023-01-31T14:27:44.937Z,8.55
2023-01-31T14:30:36.493Z,8.67
2023-01-31T14:33:18.448Z,8.59
2023-01-31T14:36:22.555Z,8.27
2023-01-31T14:39:29.879Z,8.48
2023-01-31T14:42:23.022Z,8.26
2023-01-31T14:45:09.730Z,8.03
2023-01-31T14:47:57.137Z,8.01
2023-01-31T14:50:45.019Z,8.19
2023-01-31T14:53:39.324Z,8.38
2023-01-31T14:56:35.014Z,8.34
2023-01-31T14:59:06.484Z,8.66
2023-01-31T15:01:37.250Z,8.82
2023-01-31T15:04:06.264Z,8.89
2023-01-31T15:06:39.547Z,8.35
2023-01-31T15:09:37.979Z,8.34
2023-01-31T15:12:43.901Z,8.23
2023-01-31T15:15:25.506Z,8.45
2023-01-31T15:17:55.597Z,8.32
2023-01-31T15:20:43.552Z,8.48
2023-01-31T15:23:21.890Z,8.40
2023-01-31T15:25:54.154Z,8.49
2023-01-31T15:28:27.638Z,8.15
2023-01-31T15:31:02.052Z,8.40
2023-01-31T15:33:38.076Z,8.27
2023-01-31T15:36:18.142Z,7.67
2023-01-31T15:39:23.427Z,7.35
2023-01-31T15:42:36.646Z,7.59
2023-01-31T15:45:29.792Z,8.04
2023-01-31T15:48:00.009Z,7.79
2023-01-31T15:50:32.265Z,7.86
2023-01-31T15:53:03.558Z,8.09
2023-01-31T15:55:35.995Z,7.94
2023-01-31T15:58:06.099Z,7.97
2023-01-31T16:00:36.869Z,7.84
2023-01-31T16:03:08.031Z,8.04
2023-01-31T16:05:41.210Z,7.99
2023-01-31T16:08:21.438Z,7.97
2023-01-31T16:10:50.811Z,7.88
2023-01-31T16:13:20.629Z,8.10
2023-01-31T16:15:52.111Z,8.34
2023-01-31T16:18:22.602Z,7.83
2023-01-31T16:20:55.973Z,8.00
2023-01-31T16:23:28.733Z,7.78
2023-01-31T16:26:06.621Z,7.58
2023-01-31T16:28:41.844Z,7.39
2023-01-31T16:31:12.391Z,7.52
2023-01-31T16:33:49.607Z,7.46
2023-01-31T16:36:26.064Z,7.04
2023-01-31T16:39:01.481Z,7.31
2023-01-31T16:41:49.297Z,7.14
2023-01-31T16:44:21.287Z,6.99
2023-01-31T16:46:51.062Z,6.80
2023-01-31T16:49:23.259Z,7.10
2023-01-31T16:51:55.244Z,7.33
2023-01-31T16:54:24.505Z,7.33
2023-01-31T16:57:22.242Z,7.40
2023-01-31T16:59:52.517Z,7.45
2023-01-31T17:02:25.305Z,7.75
2023-01-31T17:04:57.637Z,7.80
2023-01-31T17:07:29.504Z,7.42
2023-01-31T17:10:01.767Z,7.26
2023-01-31T17:12:35.313Z,7.11
2023-01-31T17:15:12.237Z,6.94
2023-01-31T17:17:40.009Z,7.02
2023-01-31T17:20:09.208Z,6.92
2023-01-31T17:22:38.218Z,6.99
2023-01-31T17:25:16.505Z,6.95
2023-01-31T17:27:48.587Z,7.01
2023-01-31T17:30:22.695Z,7.01
2023-01-31T17:32:52.681Z,7.09
2023-01-31T17:35:26.948Z,7.66
2023-01-31T17:37:54.845Z,7.81
2023-01-31T17:40:22.703Z,7.87
2023-01-31T17:42:54.307Z,7.87
2023-01-31T17:45:22.221Z,7.81
2023-01-31T17:47:50.345Z,7.88
2023-01-31T17:50:22.569Z,8.04
2023-01-31T17:52:50.891Z,8.19
2023-01-31T17:55:22.290Z,8.04
2023-01-31T17:57:50.541Z,8.10
2023-01-31T18:00:21.074Z,8.26
2023-01-31T18:02:49.396Z,8.15
2023-01-31T18:05:27.129Z,7.99
2023-01-31T18:08:01.214Z,8.29
2023-01-31T18:10:28.747Z,7.94
2023-01-31T18:12:58.139Z,7.76
2023-01-31T18:15:27.391Z,8.06
2023-01-31T18:17:55.272Z,8.01
2023-01-31T18:20:22.978Z,8.10
2023-01-31T18:22:52.439Z,8.25
2023-01-31T18:25:20.543Z,7.85
2023-01-31T18:27:49.114Z,8.17
2023-01-31T18:30:17.364Z,8.37
2023-01-31T18:32:46.501Z,8.41
2023-01-31T18:35:14.473Z,8.37
2023-01-31T18:37:42.864Z,8.36
2023-01-31T18:40:12.061Z,8.25
2023-01-31T18:42:40.096Z,8.44
2023-01-31T18:45:08.377Z,8.16
2023-01-31T18:47:36.198Z,8.15
2023-01-31T18:50:06.553Z,8.07
2023-01-31T18:52:34.253Z,8.26
2023-01-31T18:55:02.094Z,8.22
2023-01-31T18:57:29.893Z,7.92
2023-01-31T18:59:57.487Z,8.13
2023-01-31T19:02:25.220Z,8.07
2023-01-31T19:04:55.404Z,8.21
2023-01-31T19:07:24.634Z,8.05
2023-01-31T19:09:54.011Z,7.94
2023-01-31T19:12:21.724Z,7.77
2023-01-31T19:14:49.457Z,7.32
2023-01-31T19:17:17.851Z,7.40
2023-01-31T19:19:45.561Z,7.20
2023-01-31T19:22:13.765Z,7.16
2023-01-31T19:24:43.007Z,7.15
2023-01-31T19:27:10.869Z,7.09
2023-01-31T19:29:39.719Z,7.23
2023-01-31T19:32:08.560Z,7.18
2023-01-31T19:34:36.336Z,7.09
2023-01-31T19:37:04.698Z,7.24
2023-01-31T19:39:33.887Z,7.39
2023-01-31T19:42:03.584Z,7.29
2023-01-31T19:44:31.345Z,6.98
2023-01-31T19:46:59.064Z,7.16
2023-01-31T19:49:27.213Z,7.25
2023-01-31T19:51:57.379Z,7.39
2023-01-31T19:54:27.133Z,7.68
2023-01-31T19:56:56.600Z,7.62
2023-01-31T19:59:25.569Z,7.77
2023-01-31T20:01:53.663Z,7.72
2023-01-31T20:04:21.506Z,7.74
2023-01-31T20:06:50.411Z,7.80
2023-01-31T20:09:18.330Z,7.87
2023-01-31T20:11:46.560Z,7.75
2023-01-31T20:14:15.582Z,7.64
2023-01-31T20:16:44.926Z,7.59
2023-01-31T20:19:13.624Z,7.59
2023-01-31T20:21:41.784Z,7.68
2023-01-31T20:24:09.780Z,7.84
2023-01-31T20:26:37.486Z,7.97
2023-01-31T20:29:05.174Z,8.09
2023-01-31T20:31:33.122Z,8.21
2023-01-31T20:34:03.339Z,8.28
2023-01-31T20:36:30.920Z,8.31
2023-01-31T20:38:58.497Z,8.31
2023-01-31T20:41:26.043Z,8.36
2023-01-31T20:43:55.117Z,8.41
2023-01-31T20:46:22.747Z,8.30
2023-01-31T20:48:50.497Z,8.32
2023-01-31T20:51:19.450Z,8.33
2023-01-31T20:53:47.417Z,8.27
2023-01-31T20:56:15.240Z,8.05
2023-01-31T20:58:43.943Z,8.22
2023-01-31T21:01:12.594Z,8.31
2023-01-31T21:03:40.308Z,8.34
2023-01-31T21:06:08.068Z,8.30
2023-01-31T21:08:37.425Z,8.13
2023-01-31T21:11:08.364Z,8.25
2023-01-31T21:13:37.220Z,8.19
2023-01-31T21:16:08.210Z,8.33
2023-01-31T21:18:40.028Z,8.13
2023-01-31T21:21:10.587Z,8.06
2023-01-31T21:23:40.985Z,7.51
2023-01-31T21:26:11.212Z,7.58
2023-01-31T21:28:40.005Z,7.56
2023-01-31T21:31:10.203Z,7.11
2023-01-31T21:33:38.102Z,6.97
2023-01-31T21:36:07.852Z,6.78
2023-01-31T21:38:35.774Z,6.90
2023-01-31T21:41:05.489Z,6.73
2023-01-31T21:43:33.066Z,6.82
2023-01-31T21:46:03.360Z,6.59
2023-01-31T21:48:31.148Z,6.59
2023-01-31T21:51:03.911Z,6.74
2023-01-31T21:53:31.697Z,6.62
2023-01-31T21:56:03.239Z,6.74
2023-01-31T21:58:33.338Z,6.69
2023-01-31T22:01:05.079Z,6.58
2023-01-31T22:03:34.750Z,6.62
2023-01-31T22:06:03.785Z,6.70
2023-01-31T22:08:32.340Z,6.59
2023-01-31T22:11:03.913Z,6.53
2023-01-31T22:13:34.791Z,6.39
2023-01-31T22:16:05.656Z,6.42
2023-01-31T22:18:33.603Z,6.21
2023-01-31T22:21:05.559Z,6.23
2023-01-31T22:23:35.071Z,6.37
2023-01-31T22:26:04.569Z,6.41
2023-01-31T22:28:34.702Z,6.30
2023-01-31T22:31:03.775Z,6.30
2023-01-31T22:33:33.586Z,6.01
2023-01-31T22:36:02.454Z,6.27
2023-01-31T22:38:31.303Z,6.27
2023-01-31T22:41:01.498Z,6.27
2023-01-31T22:43:30.360Z,6.30
2023-01-31T22:46:01.991Z,6.09
2023-01-31T22:48:30.127Z,6.21
2023-01-31T22:50:59.887Z,6.28
2023-01-31T22:53:31.037Z,6.34
2023-01-31T22:56:01.479Z,6.25
2023-01-31T22:58:29.265Z,6.25
2023-01-31T23:00:57.446Z,6.09
2023-01-31T23:03:27.509Z,5.99
2023-01-31T23:05:55.109Z,6.07
2023-01-31T23:08:22.790Z,6.29
2023-01-31T23:10:50.644Z,6.17
2023-01-31T23:13:18.324Z,6.29
2023-01-31T23:15:47.182Z,6.15
2023-01-31T23:18:15.877Z,6.02
2023-01-31T23:20:44.771Z,6.04
2023-01-31T23:23:12.348Z,5.88
2023-01-31T23:25:39.996Z,5.86
2023-01-31T23:28:07.594Z,6.08
2023-01-31T23:30:35.552Z,6.22
2023-01-31T23:33:04.059Z,5.86
2023-01-31T23:35:31.853Z,5.65
2023-01-31T23:38:01.055Z,5.40
2023-01-31T23:40:28.734Z,5.64
2023-01-31T23:42:56.762Z,5.62
2023-01-31T23:45:24.348Z,5.49
2023-01-31T23:47:52.022Z,5.82
2023-01-31T23:50:19.978Z,6.01
2023-01-31T23:52:48.053Z,5.96
2023-01-31T23:55:17.542Z,5.97
2023-01-31T23:57:45.171Z,5.80
